Belle Chasse — WDG2912 — position and weather

sailwx.info

Track history (hours):
 
Tides and Currents Weather Stations Pressure Air Temp Water Temp Dewpoint Dewpoint Depression Visibility Wind Speed Wind Dir Waves Ship Positions

Belle Chasse

Owner: Higman Barge Lines, Inc, Orange, TX. More information available from US FCC via Universal Licensing System and Coast Guard Vessel Documentation Center.

Last reported at 2017-Apr-21 13:52 UTC. Time now 2017-Apr-23 14:00 UTC.
Position N 32°39' W 091°09'.

Length 26 m; draft 3 m.

Type: Towing. MMSI: 367520550.

Date/timePositionNaut miles runAvg speedWind from/ knotsBaromVisibWave heightAir tempDewpointWater temp
2017-Apr-21 13:52N 32°39' W 091°09'2 4.5
2017-Apr-21 13:30N 32°37' W 091°09'2 4.1
2017-Apr-21 13:00N 32°36' W 091°08'2 4.1
2017-Apr-21 12:30N 32°34' W 091°07'2 3.5
2017-Apr-21 12:00N 32°33' W 091°06'2 4.1
2017-Apr-21 11:29N 32°31' W 091°07'2 4.4
2017-Apr-21 11:00N 32°29' W 091°07'2 3.4
2017-Apr-21 10:29N 32°27' W 091°05'2 3.8
2017-Apr-21 10:01N 32°26' W 091°03'2 4.0
2017-Apr-21 09:31N 32°26' W 091°01'2 4.0
2017-Apr-21 09:01N 32°24' W 090°59'2 3.0
2017-Apr-21 08:30N 32°23' W 090°60'0 0.3
2017-Apr-21 07:51N 32°23' W 091°00'0 0.2
2017-Apr-21 07:30N 32°23' W 091°00'0 0.3
2017-Apr-21 07:00N 32°23' W 091°00'0 0.7
2017-Apr-21 06:30N 32°22' W 091°00'1 1.9
2017-Apr-21 06:00N 32°21' W 091°00'1 2.9
2017-Apr-21 05:30N 32°21' W 090°58'1 1.5
2017-Apr-21 04:58N 32°21' W 090°57'0 0.7
2017-Apr-21 04:28N 32°21' W 090°57'1 2.0
2017-Apr-21 03:59N 32°21' W 090°56'1 1.8
2017-Apr-21 03:29N 32°21' W 090°55'0 0.0
2017-Apr-21 02:59N 32°21' W 090°55'0 0.0
2017-Apr-21 02:29N 32°21' W 090°55'0 0.0
2017-Apr-21 01:59N 32°21' W 090°55'0 0.0
2017-Apr-21 01:29N 32°21' W 090°55'1 2.9
2017-Apr-21 01:00N 32°19' W 090°54'2 3.2
2017-Apr-21 00:30N 32°18' W 090°55'2 4.5
2017-Apr-21 00:00N 32°17' W 090°57'2 4.4
2017-Apr-20 23:30N 32°15' W 090°59'2 4.2
2017-Apr-20 23:00N 32°13' W 090°59'2 4.4
2017-Apr-20 22:30N 32°11' W 090°60'2 3.6
2017-Apr-20 22:01N 32°09' W 091°00'2 4.1
2017-Apr-20 21:30N 32°07' W 091°02'3 4.9
2017-Apr-20 20:55N 32°08' W 091°05'2 4.1
2017-Apr-20 20:31N 32°07' W 091°07'5 4.7
2017-Apr-20 19:32N 32°03' W 091°04'0 4.5
2017-Apr-20 19:30N 32°03' W 091°04'3 4.9
2017-Apr-20 18:58N 32°01' W 091°05'17 3.2
2017-Apr-20 13:34N 31°50' W 091°21'0 3.4
2017-Apr-20 13:28N 31°50' W 091°21'8 1.9
2017-Apr-20 09:16N 31°42' W 091°24'  
2017-Apr-14 18:32N 29°37' W 090°42'0 3.7
2017-Apr-14 18:30N 29°37' W 090°42'2 3.2
2017-Apr-14 18:00N 29°36' W 090°41'1 1.0
2017-Apr-14 17:28N 29°36' W 090°40'0 0.0
2017-Apr-14 17:01N 29°36' W 090°40'0 0.0
2017-Apr-14 16:31N 29°36' W 090°40'0 0.0
2017-Apr-14 15:58N 29°36' W 090°40'0 0.0
2017-Apr-14 15:30N 29°36' W 090°40'0 0.0
2017-Apr-14 14:58N 29°36' W 090°40'3 3.1
2017-Apr-14 14:00N 29°35' W 090°37'3 5.1
2017-Apr-14 13:30N 29°34' W 090°34'3 5.0
2017-Apr-14 13:00N 29°34' W 090°31'  
2017-Apr-12 08:34N 29°33' W 090°28'1 5.3
2017-Apr-12 08:28N 29°34' W 090°28'2 5.2
2017-Apr-12 07:59N 29°34' W 090°31'2 4.9
2017-Apr-12 07:30N 29°34' W 090°34'2 4.6
2017-Apr-12 07:00N 29°35' W 090°36'2 4.7
2017-Apr-12 06:30N 29°36' W 090°39'2 4.3
2017-Apr-12 06:00N 29°36' W 090°41'1 2.5
2017-Apr-12 05:30N 29°36' W 090°43'2 3.7
2017-Apr-12 05:00N 29°34' W 090°43'2 4.1
2017-Apr-12 04:30N 29°33' W 090°45'2 4.1
2017-Apr-12 04:00N 29°32' W 090°47'3 6.1
2017-Apr-12 03:30N 29°32' W 090°51'3 5.9
2017-Apr-12 02:55N 29°33' W 090°54'  
Track history (hours):
 
Tides and Currents Weather Stations Pressure Air Temp Water Temp Dewpoint Dewpoint Depression Visibility Wind Speed Wind Dir Waves Ship Positions

Belle Chasse

Owner: Higman Barge Lines, Inc, Orange, TX. More information available from US FCC via Universal Licensing System and Coast Guard Vessel Documentation Center.

Last reported at 2017-Apr-21 13:52 UTC. Time now 2017-Apr-23 14:00 UTC.
Position N 32°39' W 091°09'.

Length 26 m; draft 3 m.

Type: Towing. MMSI: 367520550.

Date/timePositionNaut miles runAvg speedWind from/ knotsBaromVisibWave heightAir tempDewpointWater temp
2017-Apr-21 13:52N 32°39' W 091°09'2 4.5
2017-Apr-21 13:30N 32°37' W 091°09'2 4.1
2017-Apr-21 13:00N 32°36' W 091°08'2 4.1
2017-Apr-21 12:30N 32°34' W 091°07'2 3.5
2017-Apr-21 12:00N 32°33' W 091°06'2 4.1
2017-Apr-21 11:29N 32°31' W 091°07'2 4.4
2017-Apr-21 11:00N 32°29' W 091°07'2 3.4
2017-Apr-21 10:29N 32°27' W 091°05'2 3.8
2017-Apr-21 10:01N 32°26' W 091°03'2 4.0
2017-Apr-21 09:31N 32°26' W 091°01'2 4.0
2017-Apr-21 09:01N 32°24' W 090°59'2 3.0
2017-Apr-21 08:30N 32°23' W 090°60'0 0.3
2017-Apr-21 07:51N 32°23' W 091°00'0 0.2
2017-Apr-21 07:30N 32°23' W 091°00'0 0.3
2017-Apr-21 07:00N 32°23' W 091°00'0 0.7
2017-Apr-21 06:30N 32°22' W 091°00'1 1.9
2017-Apr-21 06:00N 32°21' W 091°00'1 2.9
2017-Apr-21 05:30N 32°21' W 090°58'1 1.5
2017-Apr-21 04:58N 32°21' W 090°57'0 0.7
2017-Apr-21 04:28N 32°21' W 090°57'1 2.0
2017-Apr-21 03:59N 32°21' W 090°56'1 1.8
2017-Apr-21 03:29N 32°21' W 090°55'0 0.0
2017-Apr-21 02:59N 32°21' W 090°55'0 0.0
2017-Apr-21 02:29N 32°21' W 090°55'0 0.0
2017-Apr-21 01:59N 32°21' W 090°55'0 0.0
2017-Apr-21 01:29N 32°21' W 090°55'1 2.9
2017-Apr-21 01:00N 32°19' W 090°54'2 3.2
2017-Apr-21 00:30N 32°18' W 090°55'2 4.5
2017-Apr-21 00:00N 32°17' W 090°57'2 4.4
2017-Apr-20 23:30N 32°15' W 090°59'2 4.2
2017-Apr-20 23:00N 32°13' W 090°59'2 4.4
2017-Apr-20 22:30N 32°11' W 090°60'2 3.6
2017-Apr-20 22:01N 32°09' W 091°00'2 4.1
2017-Apr-20 21:30N 32°07' W 091°02'3 4.9
2017-Apr-20 20:55N 32°08' W 091°05'2 4.1
2017-Apr-20 20:31N 32°07' W 091°07'5 4.7
2017-Apr-20 19:32N 32°03' W 091°04'0 4.5
2017-Apr-20 19:30N 32°03' W 091°04'3 4.9
2017-Apr-20 18:58N 32°01' W 091°05'17 3.2
2017-Apr-20 13:34N 31°50' W 091°21'0 3.4
2017-Apr-20 13:28N 31°50' W 091°21'8 1.9
2017-Apr-20 09:16N 31°42' W 091°24'  
2017-Apr-14 18:32N 29°37' W 090°42'0 3.7
2017-Apr-14 18:30N 29°37' W 090°42'2 3.2
2017-Apr-14 18:00N 29°36' W 090°41'1 1.0
2017-Apr-14 17:28N 29°36' W 090°40'0 0.0
2017-Apr-14 17:01N 29°36' W 090°40'0 0.0
2017-Apr-14 16:31N 29°36' W 090°40'0 0.0
2017-Apr-14 15:58N 29°36' W 090°40'0 0.0
2017-Apr-14 15:30N 29°36' W 090°40'0 0.0
2017-Apr-14 14:58N 29°36' W 090°40'3 3.1
2017-Apr-14 14:00N 29°35' W 090°37'3 5.1
2017-Apr-14 13:30N 29°34' W 090°34'3 5.0
2017-Apr-14 13:00N 29°34' W 090°31'  
2017-Apr-12 08:34N 29°33' W 090°28'1 5.3
2017-Apr-12 08:28N 29°34' W 090°28'2 5.2
2017-Apr-12 07:59N 29°34' W 090°31'2 4.9
2017-Apr-12 07:30N 29°34' W 090°34'2 4.6
2017-Apr-12 07:00N 29°35' W 090°36'2 4.7
2017-Apr-12 06:30N 29°36' W 090°39'2 4.3
2017-Apr-12 06:00N 29°36' W 090°41'1 2.5
2017-Apr-12 05:30N 29°36' W 090°43'2 3.7
2017-Apr-12 05:00N 29°34' W 090°43'2 4.1
2017-Apr-12 04:30N 29°33' W 090°45'2 4.1
2017-Apr-12 04:00N 29°32' W 090°47'3 6.1
2017-Apr-12 03:30N 29°32' W 090°51'3 5.9
2017-Apr-12 02:55N 29°33' W 090°54'  

Dump ship's entire track history